Time;durP1;ratioP1;P1;durP2;ratioP2;P2;SDS_P1;SDS_P2;PMS_P1;PMS_P2;Temp;Humidity;BMP_temperature;BMP_pressure;BME280_temperature;BME280_humidity;BME280_pressure;Samples;Min_cycle;Max_cycle;Signal;HPM_P1;HPM_P2
2022/09/14 00:00:09;;;;;;;;;;;;;;;;;;5013001;28;20052;-52
2022/09/14 00:02:36;;;;;;;;;;;;;;;;;;5011882;28;19926;-52
2022/09/14 00:05:03;;;;;;;;;;;;;;;;;;5012083;28;19977;-51
2022/09/14 00:07:29;;;;;;;;;;;;;;;;;;5011822;28;20053;-50
2022/09/14 00:09:56;;;;;;;;;;;;;;;;;;5012182;28;19926;-52
2022/09/14 00:12:23;;;;;;;;;;;;;;;;;;5012566;28;20327;-53
2022/09/14 00:14:51;;;;;;;;;;;;;;;;;;5012417;28;20381;-52
2022/09/14 00:17:18;;;;;;;;;;;;;;;;;;5012360;28;19933;-52
2022/09/14 00:19:45;;;;;;;;;;;;;;;;;;5011789;28;19978;-52
2022/09/14 00:22:11;;;;;;;;;;;;;;;;;;5011708;28;20017;-53
2022/09/14 00:24:38;;;;;;;;;;;;;;;;;;5011996;28;20001;-53
2022/09/14 00:27:05;;;;;;;;;;;;;;;;;;5011547;28;20003;-55
2022/09/14 00:29:32;;;;;;;;;;;;;;;;;;5011135;28;19925;-52
2022/09/14 00:32:00;;;;;;;;;;;;;;;;;;5011249;28;19929;-49
2022/09/14 00:34:27;;;;;;;;;;;;;;;;;;5011120;28;19980;-54
2022/09/14 00:36:53;;;;;;;;;;;;;;;;;;5012562;28;20420;-51
2022/09/14 00:39:23;;;;;;;;;;;;;;;;;;5011424;28;19980;-55
2022/09/14 00:41:51;;;;;;;;;;;;;;;;;;5012175;28;19925;-55
2022/09/14 00:44:36;;;;;;;;;;;;;;;;;;5011317;28;20385;-55
2022/09/14 00:47:04;;;;;;;;;;;;;;;;;;5011495;28;19925;-54
2022/09/14 00:49:32;;;;;;;;;;;;;;;;;;5011049;28;19925;-54
2022/09/14 00:52:02;;;;;;;;;;;;;;;;;;5011294;28;19933;-53
2022/09/14 00:54:29;;;;;;;;;;;;;;;;;;5011345;28;19995;-51
2022/09/14 00:56:56;;;;;;;;;;;;;;;;;;5011927;28;19930;-52
2022/09/14 00:59:25;;;;;;;;;;;;;;;;;;5011022;28;19968;-53
2022/09/14 01:01:52;;;;;;;;;;;;;;;;;;5010793;28;19926;-54
2022/09/14 01:04:21;;;;;;;;;;;;;;;;;;5011341;28;19938;-50
2022/09/14 01:06:52;;;;;;;;;;;;;;;;;;5011318;28;19977;-53
2022/09/14 01:09:25;;;;;;;;;;;;;;;;;;5010878;28;19979;-51
2022/09/14 01:12:00;;;;;;;;;;;;;;;;;;5011140;28;19979;-52
2022/09/14 01:14:31;;;;;;;;;;;;;;;;;;5010992;28;19988;-52
2022/09/14 01:17:01;;;;;;;;;;;;;;;;;;5011091;28;20418;-53
2022/09/14 01:19:33;;;;;;;;;;;;;;;;;;5010480;28;20590;-50
2022/09/14 01:22:11;;;;;;;;;;;;;;;;;;5011333;28;19925;-54
2022/09/14 01:24:42;;;;;;;;;;;;;;;;;;4992856;28;20433;-49
2022/09/14 01:27:18;;;;;;;;;;;;;;;;;;5010963;28;19929;-54
2022/09/14 01:29:47;;;;;;;;;;;;;;;;;;5010553;28;19925;-53
2022/09/14 01:32:15;;;;;;;;;;;;;;;;;;5010872;28;19925;-54
2022/09/14 01:34:46;;;;;;;;;;;;;;;;;;5010795;28;19925;-53
2022/09/14 01:37:14;;;;;;;;;;;;;;;;;;5010717;28;19987;-56
2022/09/14 01:39:43;;;;;;;;;;;;;;;;;;5010951;28;19925;-54
2022/09/14 01:42:11;;;;;;;;;;;;;;;;;;5010919;28;19980;-52
2022/09/14 01:44:41;;;;;;;;;;;;;;;;;;5010846;28;20433;-55
2022/09/14 01:47:11;;;;;;;;;;;;;;;;;;5010894;28;19932;-56
2022/09/14 01:49:39;;;;;;;;;;;;;;;;;;5010621;28;19926;-56
2022/09/14 01:52:08;;;;;;;;;;;;;;;;;;5010492;28;20349;-52
2022/09/14 01:54:37;;;;;;;;;;;;;;;;;;5010612;28;20098;-54
2022/09/14 01:57:08;;;;;;;;;;;;;;;;;;5010188;28;19941;-53
2022/09/14 01:59:36;;;;;;;;;;;;;;;;;;5010364;28;19926;-51
2022/09/14 02:02:07;;;;;;;;;;;;;;;;;;5010189;28;19979;-55
2022/09/14 02:04:38;;;;;;;;;;;;;;;;;;5010546;28;19925;-54
2022/09/14 02:07:05;;;;;;;;;;;;;;;;;;5010511;28;20408;-54
2022/09/14 02:09:32;;;;;;;;;;;;;;;;;;5009659;28;19941;-53
2022/09/14 02:11:59;;;;;;;;;;;;;;;;;;5010300;28;19935;-52
2022/09/14 02:14:27;;;;;;;;;;;;;;;;;;5009672;28;20368;-51
2022/09/14 02:16:53;;;;;;;;;;;;;;;;;;5010229;28;20285;-52
2022/09/14 02:19:23;;;;;;;;;;;;;;;;;;5010007;28;19925;-54
2022/09/14 02:21:50;;;;;;;;;;;;;;;;;;5010229;28;19929;-53
2022/09/14 02:24:18;;;;;;;;;;;;;;;;;;5009901;28;20054;-54
2022/09/14 02:26:45;;;;;;;;;;;;;;;;;;5010203;28;19933;-55
2022/09/14 02:29:13;;;;;;;;;;;;;;;;;;5009879;28;19936;-54
2022/09/14 02:31:45;;;;;;;;;;;;;;;;;;5010059;28;19956;-54
2022/09/14 02:34:16;;;;;;;;;;;;;;;;;;5010153;28;19926;-55
2022/09/14 02:36:47;;;;;;;;;;;;;;;;;;5010219;28;19925;-51
2022/09/14 02:39:19;;;;;;;;;;;;;;;;;;5010176;28;19957;-52
2022/09/14 02:41:48;;;;;;;;;;;;;;;;;;5004207;28;20238;-52
2022/09/14 02:44:19;;;;;;;;;;;;;;;;;;5009669;28;19952;-54
2022/09/14 02:46:48;;;;;;;;;;;;;;;;;;5009862;28;19926;-54
2022/09/14 02:49:18;;;;;;;;;;;;;;;;;;5009768;28;20287;-54
2022/09/14 02:51:50;;;;;;;;;;;;;;;;;;5009924;28;19972;-55
2022/09/14 02:54:18;;;;;;;;;;;;;;;;;;5011554;28;20374;-52
2022/09/14 02:56:45;;;;;;;;;;;;;;;;;;5013994;28;20452;-53
2022/09/14 02:59:12;;;;;;;;;;;;;;;;;;5013306;28;19932;-53
2022/09/14 03:01:39;;;;;;;;;;;;;;;;;;5013318;28;20025;-53
2022/09/14 03:04:05;;;;;;;;;;;;;;;;;;5013189;28;19925;-56
2022/09/14 03:06:33;;;;;;;;;;;;;;;;;;5013388;28;19931;-53
2022/09/14 03:09:01;;;;;;;;;;;;;;;;;;5013728;28;19926;-51
2022/09/14 03:11:28;;;;;;;;;;;;;;;;;;5013487;28;20370;-53
2022/09/14 03:13:55;;;;;;;;;;;;;;;;;;5013515;28;19984;-52
2022/09/14 03:16:21;;;;;;;;;;;;;;;;;;5013884;28;19932;-51
2022/09/14 03:18:48;;;;;;;;;;;;;;;;;;5013224;28;20417;-52
2022/09/14 03:21:16;;;;;;;;;;;;;;;;;;5012848;28;20177;-56
2022/09/14 03:23:47;;;;;;;;;;;;;;;;;;5013473;28;19925;-55
2022/09/14 03:26:16;;;;;;;;;;;;;;;;;;5013421;28;19926;-56
2022/09/14 03:28:43;;;;;;;;;;;;;;;;;;5013144;28;20020;-53
2022/09/14 03:31:11;;;;;;;;;;;;;;;;;;5012946;28;20382;-55
2022/09/14 03:33:39;;;;;;;;;;;;;;;;;;5012876;28;19980;-52
2022/09/14 03:36:13;;;;;;;;;;;;;;;;;;5013477;28;19948;-51
2022/09/14 03:38:42;;;;;;;;;;;;;;;;;;5012804;28;19926;-54
2022/09/14 03:41:09;;;;;;;;;;;;;;;;;;5012752;28;20406;-55
2022/09/14 03:43:37;;;;;;;;;;;;;;;;;;5012687;28;20018;-50
2022/09/14 03:46:05;;;;;;;;;;;;;;;;;;5012616;28;19929;-50
2022/09/14 03:48:32;;;;;;;;;;;;;;;;;;5012870;28;19926;-51
2022/09/14 03:51:00;;;;;;;;;;;;;;;;;;5012186;28;19987;-51
2022/09/14 03:53:27;;;;;;;;;;;;;;;;;;5012655;28;19926;-51
2022/09/14 03:55:54;;;;;;;;;;;;;;;;;;5012784;28;19972;-52
2022/09/14 03:58:21;;;;;;;;;;;;;;;;;;5012587;28;19941;-51
2022/09/14 04:00:49;;;;;;;;;;;;;;;;;;5012226;28;19976;-51
2022/09/14 04:03:15;;;;;;;;;;;;;;;;;;5012556;28;20160;-55
2022/09/14 04:05:44;;;;;;;;;;;;;;;;;;5011673;28;20340;-57
2022/09/14 04:08:10;;;;;;;;;;;;;;;;;;4992643;28;20025;-54
2022/09/14 04:10:39;;;;;;;;;;;;;;;;;;4992710;28;19930;-57
2022/09/14 04:13:06;;;;;;;;;;;;;;;;;;4993001;28;19932;-54
2022/09/14 04:15:32;;;;;;;;;;;;;;;;;;4993149;28;19945;-54
2022/09/14 04:18:00;;;;;;;;;;;;;;;;;;5005684;28;19997;-53
2022/09/14 04:20:27;;;;;;;;;;;;;;;;;;5011830;28;19925;-51
2022/09/14 04:22:53;;;;;;;;;;;;;;;;;;5012481;28;20279;-50
2022/09/14 04:25:22;;;;;;;;;;;;;;;;;;5012371;28;19926;-54
2022/09/14 04:27:48;;;;;;;;;;;;;;;;;;5012273;28;19926;-53
2022/09/14 04:30:15;;;;;;;;;;;;;;;;;;5012164;28;19932;-51
2022/09/14 04:32:43;;;;;;;;;;;;;;;;;;5041152;22;20311;-74
2022/09/14 04:35:11;;;;;;;;;;;;;;;;;;5033409;28;19932;-74
2022/09/14 04:37:37;;;;;;;;;;;;;;;;;;5033097;28;19979;-75
2022/09/14 04:40:04;;;;;;;;;;;;;;;;;;5032674;28;20019;-74
2022/09/14 04:42:31;;;;;;;;;;;;;;;;;;5032527;28;19964;-75
2022/09/14 04:44:57;;;;;;;;;;;;;;;;;;5032299;28;19928;-75
2022/09/14 04:47:23;;;;;;;;;;;;;;;;;;5031719;28;20314;-76
2022/09/14 04:49:50;;;;;;;;;;;;;;;;;;5031264;28;19933;-76
2022/09/14 04:52:18;;;;;;;;;;;;;;;;;;5031100;28;20016;-75
2022/09/14 04:54:45;;;;;;;;;;;;;;;;;;5031914;28;19933;-75
2022/09/14 04:57:11;;;;;;;;;;;;;;;;;;5032314;28;19988;-75
2022/09/14 04:59:38;;;;;;;;;;;;;;;;;;5032586;28;20307;-75
2022/09/14 05:02:04;;;;;;;;;;;;;;;;;;5031853;28;19929;-74
2022/09/14 05:04:31;;;;;;;;;;;;;;;;;;5032137;28;19925;-74
2022/09/14 05:06:57;;;;;;;;;;;;;;;;;;5031141;28;19925;-74
2022/09/14 05:09:25;;;;;;;;;;;;;;;;;;5030793;28;20376;-74
2022/09/14 05:11:51;;;;;;;;;;;;;;;;;;5031011;28;19935;-74
2022/09/14 05:14:18;;;;;;;;;;;;;;;;;;5031443;28;19960;-74
2022/09/14 05:16:46;;;;;;;;;;;;;;;;;;5030741;28;20328;-74
2022/09/14 05:19:14;;;;;;;;;;;;;;;;;;5030121;28;19933;-74
2022/09/14 05:21:40;;;;;;;;;;;;;;;;;;5030409;28;20011;-74
2022/09/14 05:24:11;;;;;;;;;;;;;;;;;;5031193;28;19935;-74
2022/09/14 05:26:39;;;;;;;;;;;;;;;;;;5030895;28;20308;-74
2022/09/14 05:29:05;;;;;;;;;;;;;;;;;;5030680;28;19994;-74
2022/09/14 05:31:32;;;;;;;;;;;;;;;;;;5030492;28;19929;-74
2022/09/14 05:33:59;;;;;;;;;;;;;;;;;;5031044;28;20403;-74
2022/09/14 05:36:25;;;;;;;;;;;;;;;;;;5030846;28;20467;-74
2022/09/14 05:38:52;;;;;;;;;;;;;;;;;;5030998;28;19925;-74
2022/09/14 05:41:18;;;;;;;;;;;;;;;;;;5030661;28;19925;-74
2022/09/14 05:43:46;;;;;;;;;;;;;;;;;;5030496;28;19929;-74
2022/09/14 05:46:13;;;;;;;;;;;;;;;;;;5030825;28;20028;-75
2022/09/14 05:48:40;;;;;;;;;;;;;;;;;;5030418;28;19925;-74
2022/09/14 05:51:08;;;;;;;;;;;;;;;;;;5030793;28;19925;-77
2022/09/14 05:53:34;;;;;;;;;;;;;;;;;;5030896;28;19978;-74
2022/09/14 05:56:02;;;;;;;;;;;;;;;;;;5031019;28;19971;-74
2022/09/14 05:58:29;;;;;;;;;;;;;;;;;;5031331;28;19925;-74
2022/09/14 06:00:57;;;;;;;;;;;;;;;;;;5031749;28;20403;-74
2022/09/14 06:03:24;;;;;;;;;;;;;;;;;;5030952;28;20287;-74
2022/09/14 06:05:53;;;;;;;;;;;;;;;;;;5041703;28;19953;-73
2022/09/14 06:08:20;;;;;;;;;;;;;;;;;;5036072;28;20007;-73
2022/09/14 06:10:46;;;;;;;;;;;;;;;;;;5036744;28;19963;-74
2022/09/14 06:13:12;;;;;;;;;;;;;;;;;;5035766;28;19925;-74
2022/09/14 06:15:39;;;;;;;;;;;;;;;;;;5033366;28;19971;-74
2022/09/14 06:18:07;;;;;;;;;;;;;;;;;;5030673;28;20395;-74
2022/09/14 06:20:33;;;;;;;;;;;;;;;;;;5030680;28;20004;-74
2022/09/14 06:23:00;;;;;;;;;;;;;;;;;;5030265;28;20020;-74
2022/09/14 06:25:26;;;;;;;;;;;;;;;;;;5030475;28;20370;-74
2022/09/14 06:27:53;;;;;;;;;;;;;;;;;;5029755;28;20383;-73
2022/09/14 06:30:20;;;;;;;;;;;;;;;;;;5033329;28;20008;-74
2022/09/14 06:32:46;;;;;;;;;;;;;;;;;;5033588;28;20004;-74
2022/09/14 06:35:14;;;;;;;;;;;;;;;;;;5034558;28;20510;-74
2022/09/14 06:37:41;;;;;;;;;;;;;;;;;;5033706;28;19933;-74
2022/09/14 06:40:08;;;;;;;;;;;;;;;;;;5034196;28;19967;-74
2022/09/14 06:42:34;;;;;;;;;;;;;;;;;;5033925;28;19935;-74
2022/09/14 06:45:01;;;;;;;;;;;;;;;;;;5034375;28;19973;-74
2022/09/14 06:47:31;;;;;;;;;;;;;;;;;;5034020;28;19936;-76
2022/09/14 06:49:57;;;;;;;;;;;;;;;;;;5033736;28;20008;-74
2022/09/14 06:52:25;;;;;;;;;;;;;;;;;;5030070;28;20008;-74
2022/09/14 06:54:52;;;;;;;;;;;;;;;;;;5031726;28;19937;-74
2022/09/14 06:57:18;;;;;;;;;;;;;;;;;;5030267;28;19947;-74
2022/09/14 06:59:45;;;;;;;;;;;;;;;;;;5023857;28;19964;-74
2022/09/14 07:02:13;;;;;;;;;;;;;;;;;;5023504;28;20020;-75
2022/09/14 07:04:39;;;;;;;;;;;;;;;;;;5015250;28;19972;-75
2022/09/14 07:07:06;;;;;;;;;;;;;;;;;;5014908;28;19929;-74
2022/09/14 07:09:34;;;;;;;;;;;;;;;;;;5030922;28;19929;-75
2022/09/14 07:12:00;;;;;;;;;;;;;;;;;;5033107;28;19925;-75
2022/09/14 07:14:27;;;;;;;;;;;;;;;;;;5033696;28;19995;-75
2022/09/14 07:16:53;;;;;;;;;;;;;;;;;;5033872;28;19925;-75
2022/09/14 07:19:20;;;;;;;;;;;;;;;;;;5032904;28;19932;-75
2022/09/14 07:21:47;;;;;;;;;;;;;;;;;;5032921;28;19936;-75
2022/09/14 07:24:14;;;;;;;;;;;;;;;;;;5033163;28;19971;-75
2022/09/14 07:26:42;;;;;;;;;;;;;;;;;;5033328;28;19925;-75
2022/09/14 07:29:11;;;;;;;;;;;;;;;;;;5032516;28;20318;-75
2022/09/14 07:31:39;;;;;;;;;;;;;;;;;;5033676;28;19977;-75
2022/09/14 07:34:06;;;;;;;;;;;;;;;;;;5032830;28;20422;-75
2022/09/14 07:36:33;;;;;;;;;;;;;;;;;;5033017;28;20004;-75
2022/09/14 07:39:00;;;;;;;;;;;;;;;;;;5033238;28;19984;-77
2022/09/14 07:41:27;;;;;;;;;;;;;;;;;;5033492;28;20411;-76
2022/09/14 07:43:58;;;;;;;;;;;;;;;;;;5032631;28;19984;-75
2022/09/14 07:46:25;;;;;;;;;;;;;;;;;;5032994;28;19925;-74
2022/09/14 07:48:54;;;;;;;;;;;;;;;;;;5030654;28;19925;-75
2022/09/14 07:51:21;;;;;;;;;;;;;;;;;;5030250;28;19932;-75
2022/09/14 07:53:47;;;;;;;;;;;;;;;;;;5025568;28;19972;-79
2022/09/14 07:56:15;;;;;;;;;;;;;;;;;;5020696;28;19926;-80
2022/09/14 07:58:41;;;;;;;;;;;;;;;;;;5036859;28;19956;-79
2022/09/14 08:01:11;;;;;;;;;;;;;;;;;;5032825;28;20251;-76
2022/09/14 08:03:38;;;;;;;;;;;;;;;;;;5033053;28;19929;-77
2022/09/14 08:06:07;;;;;;;;;;;;;;;;;;5032907;28;20025;-76
2022/09/14 08:08:34;;;;;;;;;;;;;;;;;;5032171;28;20383;-76
2022/09/14 08:11:05;;;;;;;;;;;;;;;;;;5032806;28;19972;-76
2022/09/14 08:13:32;;;;;;;;;;;;;;;;;;5033903;28;20023;-75
2022/09/14 08:15:59;;;;;;;;;;;;;;;;;;5033174;28;19975;-76
2022/09/14 08:18:26;;;;;;;;;;;;;;;;;;5033841;28;19925;-76
2022/09/14 08:20:53;;;;;;;;;;;;;;;;;;5036498;28;19913;-76
2022/09/14 08:23:19;;;;;;;;;;;;;;;;;;5036072;28;19968;-76
2022/09/14 08:25:46;;;;;;;;;;;;;;;;;;5033464;28;19957;-76
2022/09/14 08:28:12;;;;;;;;;;;;;;;;;;5032526;28;20299;-76
2022/09/14 08:30:40;;;;;;;;;;;;;;;;;;5032070;28;20019;-76
2022/09/14 08:33:06;;;;;;;;;;;;;;;;;;5035655;28;20418;-77
2022/09/14 08:35:34;;;;;;;;;;;;;;;;;;5028701;28;19963;-77
2022/09/14 08:38:00;;;;;;;;;;;;;;;;;;5021633;28;19976;-77
2022/09/14 08:40:27;;;;;;;;;;;;;;;;;;5035954;28;19932;-77
2022/09/14 08:42:56;;;;;;;;;;;;;;;;;;5033760;28;20019;-77
2022/09/14 08:45:23;;;;;;;;;;;;;;;;;;5034221;28;20027;-77
2022/09/14 08:47:50;;;;;;;;;;;;;;;;;;5032406;28;19925;-76
2022/09/14 08:50:17;;;;;;;;;;;;;;;;;;5032341;28;19931;-76
2022/09/14 08:52:46;;;;;;;;;;;;;;;;;;5031035;28;19929;-76
2022/09/14 08:55:25;;;;;;;;;;;;;;;;;;5031747;28;19925;-77
2022/09/14 08:57:54;;;;;;;;;;;;;;;;;;5031976;28;19929;-77
2022/09/14 09:00:22;;;;;;;;;;;;;;;;;;5031815;28;20012;-76
2022/09/14 09:03:10;;;;;;;;;;;;;;;;;;5031507;28;19933;-76
2022/09/14 09:05:38;;;;;;;;;;;;;;;;;;5031386;28;20425;-77
2022/09/14 09:08:12;;;;;;;;;;;;;;;;;;5031181;28;19937;-77
2022/09/14 09:10:40;;;;;;;;;;;;;;;;;;5031475;28;19966;-77
2022/09/14 09:13:07;;;;;;;;;;;;;;;;;;5031628;28;19925;-77
2022/09/14 09:15:35;;;;;;;;;;;;;;;;;;5030911;28;19929;-77
2022/09/14 09:18:05;;;;;;;;;;;;;;;;;;5031996;28;19925;-77
2022/09/14 09:20:32;;;;;;;;;;;;;;;;;;5030614;28;19925;-77
2022/09/14 09:23:06;;;;;;;;;;;;;;;;;;5031906;28;19957;-79
2022/09/14 09:25:39;;;;;;;;;;;;;;;;;;5032410;28;19929;-76
2022/09/14 09:28:10;;;;;;;;;;;;;;;;;;5031254;28;19925;-77
2022/09/14 09:30:39;;;;;;;;;;;;;;;;;;5031360;28;20022;-77
2022/09/14 09:33:05;;;;;;;;;;;;;;;;;;5032011;28;20473;-77
2022/09/14 09:35:32;;;;;;;;;;;;;;;;;;5015733;28;19925;-77
2022/09/14 09:37:58;;;;;;;;;;;;;;;;;;5012602;28;20387;-77
2022/09/14 09:40:28;;;;;;;;;;;;;;;;;;5016804;28;19926;-77
2022/09/14 09:43:09;;;;;;;;;;;;;;;;;;5029354;28;20269;-76
2022/09/14 09:45:53;;;;;;;;;;;;;;;;;;5039457;28;20620;-78
2022/09/14 09:48:20;;;;;;;;;;;;;;;;;;5031589;28;20020;-77
2022/09/14 09:50:47;;;;;;;;;;;;;;;;;;5031606;28;19931;-78
2022/09/14 09:53:16;;;;;;;;;;;;;;;;;;5031138;28;19931;-78
2022/09/14 09:55:46;;;;;;;;;;;;;;;;;;5035159;28;20246;-78
2022/09/14 09:58:32;;;;;;;;;;;;;;;;;;5049234;28;19924;-78
2022/09/14 10:01:00;;;;;;;;;;;;;;;;;;5025835;28;20002;-76
2022/09/14 10:03:28;;;;;;;;;;;;;;;;;;5026023;28;19976;-77
2022/09/14 10:06:00;;;;;;;;;;;;;;;;;;5024042;28;19926;-77
2022/09/14 10:08:27;;;;;;;;;;;;;;;;;;5011454;28;19925;-78
2022/09/14 10:10:54;;;;;;;;;;;;;;;;;;5020933;28;20012;-77
2022/09/14 10:13:24;;;;;;;;;;;;;;;;;;5030724;28;19925;-77
2022/09/14 10:15:52;;;;;;;;;;;;;;;;;;5030244;28;20425;-77
2022/09/14 10:18:20;;;;;;;;;;;;;;;;;;5030020;28;19929;-76
2022/09/14 10:21:01;;;;;;;;;;;;;;;;;;5030527;28;20007;-76
2022/09/14 10:23:28;;;;;;;;;;;;;;;;;;5029513;28;20016;-78
2022/09/14 10:26:17;;;;;;;;;;;;;;;;;;5029679;28;20441;-78
2022/09/14 10:28:45;;;;;;;;;;;;;;;;;;5030278;28;19925;-77
2022/09/14 10:31:18;;;;;;;;;;;;;;;;;;5029365;28;20019;-78
2022/09/14 10:33:46;;;;;;;;;;;;;;;;;;5027585;28;20414;-77
2022/09/14 10:36:14;;;;;;;;;;;;;;;;;;5027466;28;19925;-78
2022/09/14 10:38:44;;;;;;;;;;;;;;;;;;5023556;28;20502;-77
2022/09/14 10:41:16;;;;;;;;;;;;;;;;;;5029104;28;19936;-77
2022/09/14 10:43:52;;;;;;;;;;;;;;;;;;5030343;28;20031;-78
2022/09/14 10:46:20;;;;;;;;;;;;;;;;;;5030644;28;19933;-77
2022/09/14 10:49:10;;;;;;;;;;;;;;;;;;5029938;28;19960;-77
2022/09/14 10:51:45;;;;;;;;;;;;;;;;;;5017905;28;20539;-77
2022/09/14 10:54:27;;;;;;;;;;;;;;;;;;5009250;28;19926;-77
2022/09/14 10:57:01;;;;;;;;;;;;;;;;;;5011037;28;19956;-77
2022/09/14 10:59:31;;;;;;;;;;;;;;;;;;5010754;28;19926;-77
2022/09/14 11:02:13;;;;;;;;;;;;;;;;;;5017765;28;19979;-77
2022/09/14 11:04:49;;;;;;;;;;;;;;;;;;5026943;28;20024;-79
2022/09/14 11:07:21;;;;;;;;;;;;;;;;;;5014723;28;20016;-77
2022/09/14 11:09:50;;;;;;;;;;;;;;;;;;5009868;28;20001;-77
2022/09/14 11:12:20;;;;;;;;;;;;;;;;;;5010077;28;20016;-77
2022/09/14 11:14:51;;;;;;;;;;;;;;;;;;5018442;28;19925;-76
2022/09/14 11:17:35;;;;;;;;;;;;;;;;;;5033015;28;19967;-78
2022/09/14 11:20:10;;;;;;;;;;;;;;;;;;5031749;28;19925;-77
2022/09/14 11:22:44;;;;;;;;;;;;;;;;;;5012520;28;20000;-76
2022/09/14 11:25:13;;;;;;;;;;;;;;;;;;5030426;28;19933;-76
2022/09/14 11:27:42;;;;;;;;;;;;;;;;;;5033296;28;20003;-77
2022/09/14 11:30:11;;;;;;;;;;;;;;;;;;5032906;28;19925;-78
2022/09/14 11:32:40;;;;;;;;;;;;;;;;;;5013619;28;19925;-78
2022/09/14 11:35:14;;;;;;;;;;;;;;;;;;5013592;28;19925;-77
2022/09/14 11:37:42;;;;;;;;;;;;;;;;;;5013091;28;20307;-77
2022/09/14 11:40:15;;;;;;;;;;;;;;;;;;5013166;28;19926;-78
2022/09/14 11:42:45;;;;;;;;;;;;;;;;;;5015907;28;19925;-79
2022/09/14 11:45:15;;;;;;;;;;;;;;;;;;5016586;28;19925;-78
2022/09/14 11:47:45;;;;;;;;;;;;;;;;;;5014301;28;20438;-77
2022/09/14 11:50:17;;;;;;;;;;;;;;;;;;5037139;28;19953;-80
2022/09/14 11:52:43;;;;;;;;;;;;;;;;;;5037889;28;19956;-78
2022/09/14 11:55:15;;;;;;;;;;;;;;;;;;5035891;28;19963;-78
2022/09/14 11:57:43;;;;;;;;;;;;;;;;;;5039144;28;19997;-76
2022/09/14 12:00:41;;;;;;;;;;;;;;;;;;5031387;28;20027;-79
2022/09/14 12:03:16;;;;;;;;;;;;;;;;;;5033396;28;19964;-79
2022/09/14 12:05:44;;;;;;;;;;;;;;;;;;5035048;28;19925;-75
2022/09/14 12:08:27;;;;;;;;;;;;;;;;;;5032818;28;19971;-75
2022/09/14 12:10:58;;;;;;;;;;;;;;;;;;5032308;28;19995;-75
2022/09/14 12:13:25;;;;;;;;;;;;;;;;;;5032783;28;19925;-78
2022/09/14 12:16:00;;;;;;;;;;;;;;;;;;5035170;28;19944;-77
2022/09/14 12:18:28;;;;;;;;;;;;;;;;;;5031922;28;19926;-77
2022/09/14 12:21:01;;;;;;;;;;;;;;;;;;5032122;28;19925;-77
2022/09/14 12:23:45;;;;;;;;;;;;;;;;;;5032378;28;19947;-77
2022/09/14 12:26:26;;;;;;;;;;;;;;;;;;5031760;28;19926;-79
2022/09/14 12:28:55;;;;;;;;;;;;;;;;;;5034713;28;20367;-80
2022/09/14 12:31:39;;;;;;;;;;;;;;;;;;5015946;28;19925;-78
2022/09/14 12:34:13;;;;;;;;;;;;;;;;;;5012236;28;19931;-78
2022/09/14 12:36:58;;;;;;;;;;;;;;;;;;5012623;28;19925;-79
2022/09/14 12:39:25;;;;;;;;;;;;;;;;;;5012457;28;20019;-77
2022/09/14 12:42:09;;;;;;;;;;;;;;;;;;5024557;28;19992;-78
2022/09/14 12:44:37;;;;;;;;;;;;;;;;;;5037320;28;19932;-76
2022/09/14 12:47:22;;;;;;;;;;;;;;;;;;5019840;28;19975;-77
2022/09/14 12:49:50;;;;;;;;;;;;;;;;;;5013922;28;19925;-77
2022/09/14 12:52:27;;;;;;;;;;;;;;;;;;5013471;28;19947;-76
2022/09/14 12:55:00;;;;;;;;;;;;;;;;;;5030735;28;19925;-78
2022/09/14 12:57:30;;;;;;;;;;;;;;;;;;5035699;28;20029;-77
2022/09/14 13:00:01;;;;;;;;;;;;;;;;;;5034414;28;19925;-78
2022/09/14 13:02:50;;;;;;;;;;;;;;;;;;5034793;28;20366;-78
2022/09/14 13:05:21;;;;;;;;;;;;;;;;;;5035706;28;19980;-76
2022/09/14 13:07:47;;;;;;;;;;;;;;;;;;5035185;28;20008;-77
2022/09/14 13:10:17;;;;;;;;;;;;;;;;;;5035855;28;20358;-77
2022/09/14 13:12:45;;;;;;;;;;;;;;;;;;5035827;28;19925;-78
2022/09/14 13:15:17;;;;;;;;;;;;;;;;;;5033280;28;19929;-78
2022/09/14 13:17:55;;;;;;;;;;;;;;;;;;5034937;28;19927;-78
2022/09/14 13:20:23;;;;;;;;;;;;;;;;;;5035162;28;20415;-76
2022/09/14 13:22:49;;;;;;;;;;;;;;;;;;5021038;28;20569;-77
2022/09/14 13:25:26;;;;;;;;;;;;;;;;;;5015732;28;19925;-78
2022/09/14 13:27:53;;;;;;;;;;;;;;;;;;5034593;28;19925;-78
2022/09/14 13:30:21;;;;;;;;;;;;;;;;;;5030910;28;19932;-78
2022/09/14 13:32:49;;;;;;;;;;;;;;;;;;5023165;28;20447;-78
2022/09/14 13:35:17;;;;;;;;;;;;;;;;;;5022682;28;19971;-79
2022/09/14 13:37:45;;;;;;;;;;;;;;;;;;5016001;28;19945;-77
2022/09/14 13:40:12;;;;;;;;;;;;;;;;;;5017946;28;20044;-77
2022/09/14 13:42:39;;;;;;;;;;;;;;;;;;5030886;28;19925;-78
2022/09/14 13:45:06;;;;;;;;;;;;;;;;;;5036648;28;19964;-77
2022/09/14 13:47:32;;;;;;;;;;;;;;;;;;5045758;28;19925;-77
2022/09/14 13:49:59;;;;;;;;;;;;;;;;;;5039327;28;19931;-77
2022/09/14 13:52:30;;;;;;;;;;;;;;;;;;5040626;28;20035;-76
2022/09/14 13:55:12;;;;;;;;;;;;;;;;;;5039786;28;19925;-78
2022/09/14 13:57:38;;;;;;;;;;;;;;;;;;5039817;28;19932;-77
2022/09/14 14:00:07;;;;;;;;;;;;;;;;;;5039780;28;20305;-77
2022/09/14 14:02:34;;;;;;;;;;;;;;;;;;5035505;28;20562;-76
2022/09/14 14:05:01;;;;;;;;;;;;;;;;;;5033581;28;19932;-76
2022/09/14 14:07:31;;;;;;;;;;;;;;;;;;5034169;28;19931;-77
2022/09/14 14:09:58;;;;;;;;;;;;;;;;;;5032485;28;19932;-78
2022/09/14 14:12:27;;;;;;;;;;;;;;;;;;5033163;28;19955;-77
2022/09/14 14:14:55;;;;;;;;;;;;;;;;;;5032516;28;20569;-77
2022/09/14 14:17:33;;;;;;;;;;;;;;;;;;5031986;28;19929;-76
2022/09/14 14:20:00;;;;;;;;;;;;;;;;;;5031936;28;19925;-76
2022/09/14 14:22:27;;;;;;;;;;;;;;;;;;5032175;28;19925;-76
2022/09/14 14:24:54;;;;;;;;;;;;;;;;;;5032866;28;20008;-76
2022/09/14 14:27:33;;;;;;;;;;;;;;;;;;5032092;28;19925;-76
2022/09/14 14:30:00;;;;;;;;;;;;;;;;;;5031340;28;20038;-76
2022/09/14 14:32:27;;;;;;;;;;;;;;;;;;5030734;28;19925;-77
2022/09/14 14:34:53;;;;;;;;;;;;;;;;;;5030852;28;19929;-78
2022/09/14 14:37:20;;;;;;;;;;;;;;;;;;5031182;28;20347;-78
2022/09/14 14:39:47;;;;;;;;;;;;;;;;;;5033238;28;19925;-78
2022/09/14 14:42:13;;;;;;;;;;;;;;;;;;5032130;28;19968;-78
2022/09/14 14:44:42;;;;;;;;;;;;;;;;;;5030979;28;20024;-77
2022/09/14 14:47:10;;;;;;;;;;;;;;;;;;5031286;28;19925;-79
2022/09/14 14:49:36;;;;;;;;;;;;;;;;;;5031630;28;20011;-76
2022/09/14 14:52:02;;;;;;;;;;;;;;;;;;5034917;28;20443;-76
2022/09/14 14:54:29;;;;;;;;;;;;;;;;;;5035057;28;19925;-76
2022/09/14 14:56:56;;;;;;;;;;;;;;;;;;5034451;28;19991;-77
2022/09/14 14:59:25;;;;;;;;;;;;;;;;;;5034113;28;20173;-78
2022/09/14 15:01:53;;;;;;;;;;;;;;;;;;5034607;28;20023;-78
2022/09/14 15:04:20;;;;;;;;;;;;;;;;;;5035659;28;19963;-78
2022/09/14 15:06:47;;;;;;;;;;;;;;;;;;5035070;28;19960;-77
2022/09/14 15:09:14;;;;;;;;;;;;;;;;;;5035309;28;19931;-78
2022/09/14 15:11:41;;;;;;;;;;;;;;;;;;5033907;28;20002;-77
2022/09/14 15:14:09;;;;;;;;;;;;;;;;;;5035731;28;20024;-78
2022/09/14 15:16:35;;;;;;;;;;;;;;;;;;5034920;28;20292;-77
2022/09/14 15:19:03;;;;;;;;;;;;;;;;;;5032791;28;20020;-78
2022/09/14 15:21:29;;;;;;;;;;;;;;;;;;5029890;28;20431;-77
2022/09/14 15:23:57;;;;;;;;;;;;;;;;;;5034195;28;20426;-76
2022/09/14 15:26:24;;;;;;;;;;;;;;;;;;5033678;28;19925;-77
2022/09/14 15:28:51;;;;;;;;;;;;;;;;;;5033935;28;19935;-76
2022/09/14 15:31:17;;;;;;;;;;;;;;;;;;5033570;28;19925;-77
2022/09/14 15:33:44;;;;;;;;;;;;;;;;;;5033957;28;19968;-76
2022/09/14 15:36:12;;;;;;;;;;;;;;;;;;5034566;28;19925;-77
2022/09/14 15:38:38;;;;;;;;;;;;;;;;;;5035239;28;20331;-78
2022/09/14 15:41:05;;;;;;;;;;;;;;;;;;5034351;28;20400;-77
2022/09/14 15:43:32;;;;;;;;;;;;;;;;;;5033548;28;20320;-76
2022/09/14 15:46:01;;;;;;;;;;;;;;;;;;5033517;28;20308;-77
2022/09/14 15:48:28;;;;;;;;;;;;;;;;;;5033147;28;19983;-77
2022/09/14 15:50:56;;;;;;;;;;;;;;;;;;5013410;28;19933;-77
2022/09/14 15:53:24;;;;;;;;;;;;;;;;;;5013675;28;20012;-77
2022/09/14 15:55:51;;;;;;;;;;;;;;;;;;5014185;28;19976;-77
2022/09/14 15:58:17;;;;;;;;;;;;;;;;;;5014179;28;20438;-77
2022/09/14 16:00:44;;;;;;;;;;;;;;;;;;5014378;28;20419;-77
2022/09/14 16:03:11;;;;;;;;;;;;;;;;;;5032351;28;19948;-77
2022/09/14 16:05:38;;;;;;;;;;;;;;;;;;5033742;28;19931;-78
2022/09/14 16:08:04;;;;;;;;;;;;;;;;;;5033005;28;19925;-76
2022/09/14 16:10:32;;;;;;;;;;;;;;;;;;5024435;28;19929;-77
2022/09/14 16:12:59;;;;;;;;;;;;;;;;;;5027312;28;20016;-78
2022/09/14 16:15:25;;;;;;;;;;;;;;;;;;5032973;28;19929;-77
2022/09/14 16:17:52;;;;;;;;;;;;;;;;;;5033446;28;19983;-79
2022/09/14 16:20:19;;;;;;;;;;;;;;;;;;5033330;28;19929;-77
2022/09/14 16:22:46;;;;;;;;;;;;;;;;;;5033906;28;19925;-76
2022/09/14 16:25:12;;;;;;;;;;;;;;;;;;5033443;28;19936;-78
2022/09/14 16:27:40;;;;;;;;;;;;;;;;;;5033079;28;20010;-76
2022/09/14 16:30:08;;;;;;;;;;;;;;;;;;5032835;28;19924;-76
2022/09/14 16:32:34;;;;;;;;;;;;;;;;;;5032269;28;19971;-77
2022/09/14 16:35:01;;;;;;;;;;;;;;;;;;5026369;28;19933;-76
2022/09/14 16:37:27;;;;;;;;;;;;;;;;;;5011889;28;19968;-76
2022/09/14 16:39:53;;;;;;;;;;;;;;;;;;5012231;28;19932;-76
2022/09/14 16:42:20;;;;;;;;;;;;;;;;;;5012133;28;20388;-77
2022/09/14 16:44:48;;;;;;;;;;;;;;;;;;5013686;28;19988;-78
2022/09/14 16:47:14;;;;;;;;;;;;;;;;;;5032301;28;19968;-78
2022/09/14 16:49:41;;;;;;;;;;;;;;;;;;5031916;28;20012;-78
2022/09/14 16:52:07;;;;;;;;;;;;;;;;;;5032141;28;19969;-76
2022/09/14 16:54:34;;;;;;;;;;;;;;;;;;5031524;28;20395;-76
2022/09/14 16:57:00;;;;;;;;;;;;;;;;;;5031399;28;19925;-75